Terminal Aerodrome Forecast
Issued by NWS

Home | Current Version | Previous Version | Text Only | Print | Product List | Glossary On
Versions: 1 2 3 4 5 6 7 8 9 10 11 12 13
000
FTUS44 KSJT 301739
TAFBBD
TAF
KBBD 301739Z 3018/3118 07007KT P6SM VCSH BKN050
     FM310100 06006KT P6SM BKN250
     FM311000 VRB04KT P6SM SCT015 BKN040
      AMD NOT SKED=

USA.gov is the U.S. government's official web portal to all federal, state and local government web resources and services.